Time;durP1;ratioP1;P1;durP2;ratioP2;P2;SDS_P1;SDS_P2;PMS_P1;PMS_P2;Temp;Humidity;BMP_temperature;BMP_pressure;BME280_temperature;BME280_humidity;BME280_pressure;Samples;Min_cycle;Max_cycle;Signal;HPM_P1;HPM_P2
2022/04/24 00:01:30;;;;;;;;;;;8.80;99.90;;;;;;5093921;28;20329;-75
2022/04/24 00:03:56;;;;;;;;;;;8.80;99.90;;;;;;5093975;28;20304;-75
2022/04/24 00:06:21;;;;;;;;;;;8.80;99.90;;;;;;5094505;28;19920;-75
2022/04/24 00:08:47;;;;;;;;;;;8.80;99.90;;;;;;5093747;28;20328;-75
2022/04/24 00:11:12;;;;;;;;;;;8.70;99.90;;;;;;5094146;28;19920;-75
2022/04/24 00:13:40;;;;;;;;;;;8.70;99.90;;;;;;5094112;28;19920;-75
2022/04/24 00:16:06;;;;;;;;;;;8.70;99.90;;;;;;5090696;28;20298;-75
2022/04/24 00:18:32;;;;;;;;;;;8.60;99.90;;;;;;5092226;28;20042;-75
2022/04/24 00:20:57;;;;;;;;;;;8.60;99.90;;;;;;5092359;28;20260;-75
2022/04/24 00:23:23;;;;;;;;;;;8.60;99.90;;;;;;5093355;28;19981;-75
2022/04/24 00:25:48;;;;;;;;;;;8.50;99.90;;;;;;5093795;28;20003;-75
2022/04/24 00:28:14;;;;;;;;;;;8.50;99.90;;;;;;5093473;28;19927;-75
2022/04/24 00:30:39;;;;;;;;;;;8.50;99.90;;;;;;5091488;28;20038;-75
2022/04/24 00:33:05;;;;;;;;;;;8.40;99.90;;;;;;5091575;28;20006;-75
2022/04/24 00:35:31;;;;;;;;;;;8.40;99.90;;;;;;5093905;28;19924;-75
2022/04/24 00:37:57;;;;;;;;;;;8.40;99.90;;;;;;5091916;28;19934;-74
2022/04/24 00:40:22;;;;;;;;;;;8.40;99.90;;;;;;5093809;28;19990;-75
2022/04/24 00:42:48;;;;;;;;;;;8.40;99.90;;;;;;5093443;28;19967;-75
2022/04/24 00:45:13;;;;;;;;;;;8.30;99.90;;;;;;5091789;28;19927;-75
2022/04/24 00:47:41;;;;;;;;;;;8.30;99.90;;;;;;5093230;28;19966;-75
2022/04/24 00:50:07;;;;;;;;;;;8.20;99.90;;;;;;5093226;28;19998;-75
2022/04/24 00:52:33;;;;;;;;;;;8.20;99.90;;;;;;5108592;28;20450;-75
2022/04/24 00:54:59;;;;;;;;;;;8.20;99.90;;;;;;5093285;28;19920;-75
2022/04/24 00:57:25;;;;;;;;;;;8.10;99.90;;;;;;5092628;28;19920;-75
2022/04/24 00:59:50;;;;;;;;;;;8.10;99.90;;;;;;5092669;28;19931;-75
2022/04/24 01:02:16;;;;;;;;;;;8.10;99.90;;;;;;5100158;28;20312;-75
2022/04/24 01:04:41;;;;;;;;;;;8.10;99.90;;;;;;5091329;28;19927;-75
2022/04/24 01:07:07;;;;;;;;;;;8.00;99.90;;;;;;5092299;28;20291;-75
2022/04/24 01:09:33;;;;;;;;;;;8.00;99.90;;;;;;5093501;28;19920;-75
2022/04/24 01:11:59;;;;;;;;;;;7.90;99.90;;;;;;5090991;28;19927;-75
2022/04/24 01:14:26;;;;;;;;;;;7.90;99.90;;;;;;5092016;28;19920;-75
2022/04/24 01:16:52;;;;;;;;;;;8.00;99.90;;;;;;5091909;28;19920;-75
2022/04/24 01:19:18;;;;;;;;;;;7.90;99.90;;;;;;5091287;28;20011;-75
2022/04/24 01:21:44;;;;;;;;;;;7.90;99.90;;;;;;5093051;28;19924;-75
2022/04/24 01:24:11;;;;;;;;;;;7.80;99.90;;;;;;5091536;28;20049;-75
2022/04/24 01:26:37;;;;;;;;;;;7.80;99.90;;;;;;5092298;28;20371;-75
2022/04/24 01:29:03;;;;;;;;;;;7.70;99.90;;;;;;5091225;28;19920;-75
2022/04/24 01:31:32;;;;;;;;;;;7.70;99.90;;;;;;5092055;28;19919;-75
2022/04/24 01:33:57;;;;;;;;;;;7.70;99.90;;;;;;5091030;28;19966;-75
2022/04/24 01:36:23;;;;;;;;;;;7.60;99.90;;;;;;5090240;28;19928;-75
2022/04/24 01:38:49;;;;;;;;;;;7.60;99.90;;;;;;5091594;28;20333;-75
2022/04/24 01:41:14;;;;;;;;;;;7.50;99.90;;;;;;5090724;28;19959;-75
2022/04/24 01:43:41;;;;;;;;;;;7.50;99.90;;;;;;5092457;28;19963;-75
2022/04/24 01:46:08;;;;;;;;;;;7.50;99.90;;;;;;5092674;28;19920;-75
2022/04/24 01:48:33;;;;;;;;;;;7.40;99.90;;;;;;5091285;28;19996;-76
2022/04/24 01:51:00;;;;;;;;;;;7.40;99.90;;;;;;5108316;28;20427;-75
2022/04/24 01:53:25;;;;;;;;;;;7.40;99.90;;;;;;5092917;28;20014;-76
2022/04/24 01:55:51;;;;;;;;;;;7.30;99.90;;;;;;5092670;28;19981;-75
2022/04/24 01:58:16;;;;;;;;;;;7.30;99.90;;;;;;5091125;28;19924;-75
2022/04/24 02:00:42;;;;;;;;;;;7.30;99.90;;;;;;5091433;28;19920;-75
2022/04/24 02:03:07;;;;;;;;;;;7.30;99.90;;;;;;5090463;28;19935;-75
2022/04/24 02:05:33;;;;;;;;;;;7.30;99.90;;;;;;5091486;28;19963;-76
2022/04/24 02:07:58;;;;;;;;;;;7.30;99.90;;;;;;5091892;28;19927;-75
2022/04/24 02:10:24;;;;;;;;;;;7.30;99.90;;;;;;5092717;28;19943;-75
2022/04/24 02:12:49;;;;;;;;;;;7.20;99.90;;;;;;5093137;28;20029;-75
2022/04/24 02:15:17;;;;;;;;;;;7.20;99.90;;;;;;5094183;28;19920;-75
2022/04/24 02:17:42;;;;;;;;;;;7.20;99.90;;;;;;5095430;28;20022;-75
2022/04/24 02:20:09;;;;;;;;;;;7.20;99.90;;;;;;5094742;28;20003;-75
2022/04/24 02:22:35;;;;;;;;;;;7.20;99.90;;;;;;5094687;28;19919;-75
2022/04/24 02:25:00;;;;;;;;;;;7.30;99.90;;;;;;5094685;28;19943;-75
2022/04/24 02:27:26;;;;;;;;;;;7.20;99.90;;;;;;5094700;28;19920;-75
2022/04/24 02:29:52;;;;;;;;;;;7.30;99.90;;;;;;5094563;28;19927;-75
2022/04/24 02:32:18;;;;;;;;;;;7.30;99.90;;;;;;5095542;28;19923;-75
2022/04/24 02:34:43;;;;;;;;;;;7.30;99.90;;;;;;5096194;28;19920;-75
2022/04/24 02:37:09;;;;;;;;;;;7.30;99.90;;;;;;5095558;28;19923;-75
2022/04/24 02:39:35;;;;;;;;;;;7.30;99.90;;;;;;5111625;28;20355;-75
2022/04/24 02:42:01;;;;;;;;;;;7.30;99.90;;;;;;5093027;28;19939;-75
2022/04/24 02:44:27;;;;;;;;;;;7.30;99.90;;;;;;5110911;28;19920;-75
2022/04/24 02:46:52;;;;;;;;;;;7.30;99.90;;;;;;5094496;28;19927;-75
2022/04/24 02:49:18;;;;;;;;;;;7.30;99.90;;;;;;5095567;28;19924;-75
2022/04/24 02:51:44;;;;;;;;;;;7.20;99.90;;;;;;5094382;28;19920;-76
2022/04/24 02:54:09;;;;;;;;;;;7.20;99.90;;;;;;5093191;28;20026;-75
2022/04/24 02:56:35;;;;;;;;;;;7.20;99.90;;;;;;5095888;28;19973;-76
2022/04/24 02:59:00;;;;;;;;;;;7.20;99.90;;;;;;5093317;28;20371;-75
2022/04/24 03:01:26;;;;;;;;;;;7.20;99.90;;;;;;5095663;28;19966;-76
2022/04/24 03:03:54;;;;;;;;;;;7.20;99.90;;;;;;5095614;28;19924;-75
2022/04/24 03:06:19;;;;;;;;;;;7.20;99.90;;;;;;5094979;28;19977;-75
2022/04/24 03:08:47;;;;;;;;;;;7.20;99.90;;;;;;5094215;28;19926;-75
2022/04/24 03:11:14;;;;;;;;;;;7.20;99.90;;;;;;5093396;28;19920;-76
2022/04/24 03:13:40;;;;;;;;;;;7.20;99.90;;;;;;5095204;28;19920;-76
2022/04/24 03:16:05;;;;;;;;;;;7.30;99.90;;;;;;5110938;28;19920;-75
2022/04/24 03:18:31;;;;;;;;;;;7.20;99.90;;;;;;5094589;28;20020;-75
2022/04/24 03:20:56;;;;;;;;;;;7.30;99.90;;;;;;5093339;28;19920;-76
2022/04/24 03:23:22;;;;;;;;;;;7.20;99.90;;;;;;5093421;28;19920;-75
2022/04/24 03:25:47;;;;;;;;;;;7.20;99.90;;;;;;5094895;28;19931;-76
2022/04/24 03:28:13;;;;;;;;;;;7.20;99.90;;;;;;5094732;28;20006;-76
2022/04/24 03:30:38;;;;;;;;;;;7.20;99.90;;;;;;5093409;28;19920;-75
2022/04/24 03:33:04;;;;;;;;;;;7.30;99.90;;;;;;5092850;28;19959;-76
2022/04/24 03:35:29;;;;;;;;;;;7.10;99.90;;;;;;5095009;28;20406;-75
2022/04/24 03:37:55;;;;;;;;;;;7.10;99.90;;;;;;5093641;28;19920;-76
2022/04/24 03:40:20;;;;;;;;;;;7.10;99.90;;;;;;5092933;28;19930;-75
2022/04/24 03:42:48;;;;;;;;;;;7.10;99.90;;;;;;5093279;28;19931;-75
2022/04/24 03:45:14;;;;;;;;;;;7.10;99.90;;;;;;5092565;28;19920;-75
2022/04/24 03:47:39;;;;;;;;;;;7.10;99.90;;;;;;5094355;28;20287;-76
2022/04/24 03:50:06;;;;;;;;;;;7.10;99.90;;;;;;5093061;28;20010;-75
2022/04/24 03:52:31;;;;;;;;;;;7.10;99.90;;;;;;5093127;28;19963;-75
2022/04/24 03:54:57;;;;;;;;;;;7.10;99.90;;;;;;5093973;28;19920;-75
2022/04/24 03:57:22;;;;;;;;;;;7.10;99.90;;;;;;5093275;28;19920;-75
2022/04/24 03:59:48;;;;;;;;;;;7.10;99.90;;;;;;5093489;28;19923;-75
2022/04/24 04:02:14;;;;;;;;;;;7.10;99.90;;;;;;5091881;28;20046;-75
2022/04/24 04:04:39;;;;;;;;;;;7.10;99.90;;;;;;5092807;28;19927;-75
2022/04/24 04:07:05;;;;;;;;;;;7.10;99.90;;;;;;5094026;28;19934;-74
2022/04/24 04:09:31;;;;;;;;;;;7.10;99.90;;;;;;5092837;28;19927;-75
2022/04/24 04:11:56;;;;;;;;;;;7.10;99.90;;;;;;5092564;28;19920;-74
2022/04/24 04:14:22;;;;;;;;;;;7.10;99.90;;;;;;5092309;28;19923;-75
2022/04/24 04:16:48;;;;;;;;;;;7.10;99.90;;;;;;5108532;28;19942;-75
2022/04/24 04:19:13;;;;;;;;;;;7.20;99.90;;;;;;5092064;28;19959;-75
2022/04/24 04:21:39;;;;;;;;;;;7.20;99.90;;;;;;5092063;28;19920;-75
2022/04/24 04:24:05;;;;;;;;;;;7.20;99.90;;;;;;5084469;28;20323;-75
2022/04/24 04:26:30;;;;;;;;;;;7.20;99.90;;;;;;5108118;28;19924;-74
2022/04/24 04:28:56;;;;;;;;;;;7.20;99.90;;;;;;5078079;28;19981;-75
2022/04/24 04:31:22;;;;;;;;;;;8.00;99.90;;;;;;5081214;28;19924;-75
2022/04/24 04:33:48;;;;;;;;;;;7.30;99.90;;;;;;5073504;28;19969;-75
2022/04/24 04:36:13;;;;;;;;;;;7.40;99.90;;;;;;5078157;28;19920;-75
2022/04/24 04:38:39;;;;;;;;;;;7.40;99.90;;;;;;5089339;28;19927;-75
2022/04/24 04:41:04;;;;;;;;;;;7.40;99.90;;;;;;5080948;28;20375;-75
2022/04/24 04:43:30;;;;;;;;;;;7.40;99.90;;;;;;5081480;28;19973;-75
2022/04/24 04:45:56;;;;;;;;;;;7.50;99.90;;;;;;5084040;28;19923;-75
2022/04/24 04:48:22;;;;;;;;;;;7.50;99.90;;;;;;5084078;28;19955;-75
2022/04/24 04:50:47;;;;;;;;;;;7.50;99.90;;;;;;5090477;28;19928;-74
2022/04/24 04:53:12;;;;;;;;;;;7.50;99.90;;;;;;5082005;28;20328;-75
2022/04/24 04:55:38;;;;;;;;;;;7.60;99.90;;;;;;5090133;28;20291;-75
2022/04/24 04:58:04;;;;;;;;;;;7.60;99.90;;;;;;5087949;28;19921;-75
2022/04/24 05:00:29;;;;;;;;;;;7.60;99.90;;;;;;5098834;28;19927;-75
2022/04/24 05:02:55;;;;;;;;;;;7.60;99.90;;;;;;5107084;28;19920;-75
2022/04/24 05:05:20;;;;;;;;;;;7.60;99.90;;;;;;5108543;28;19931;-75
2022/04/24 05:07:46;;;;;;;;;;;7.60;99.90;;;;;;5078599;28;19924;-77
2022/04/24 05:10:11;;;;;;;;;;;7.60;99.90;;;;;;5073002;28;20363;-77
2022/04/24 05:12:37;;;;;;;;;;;7.60;99.90;;;;;;5070860;28;19924;-77
2022/04/24 05:15:03;;;;;;;;;;;7.70;99.90;;;;;;5078140;28;19920;-77
2022/04/24 05:17:29;;;;;;;;;;;7.70;99.90;;;;;;5093183;28;19928;-78
2022/04/24 05:19:55;;;;;;;;;;;7.70;99.90;;;;;;5091302;28;19927;-78
2022/04/24 05:22:20;;;;;;;;;;;7.80;99.90;;;;;;5091316;28;20011;-77
2022/04/24 05:24:46;;;;;;;;;;;7.80;99.90;;;;;;5091029;28;20273;-77
2022/04/24 05:27:11;;;;;;;;;;;7.80;99.90;;;;;;5091484;28;20007;-78
2022/04/24 05:29:37;;;;;;;;;;;8.40;99.90;;;;;;5108174;28;19920;-78
2022/04/24 05:32:02;;;;;;;;;;;8.00;99.90;;;;;;5091939;28;19920;-77
2022/04/24 05:34:28;;;;;;;;;;;8.00;99.90;;;;;;5085531;28;19920;-77
2022/04/24 05:36:53;;;;;;;;;;;8.10;99.90;;;;;;5088796;28;20299;-77
2022/04/24 05:39:19;;;;;;;;;;;8.10;99.90;;;;;;5090321;28;19920;-77
2022/04/24 05:41:45;;;;;;;;;;;8.20;99.90;;;;;;5091100;28;19927;-77
2022/04/24 05:44:10;;;;;;;;;;;8.20;99.90;;;;;;5103961;28;20015;-77
2022/04/24 05:46:36;;;;;;;;;;;8.30;99.90;;;;;;5091903;28;19920;-77
2022/04/24 05:49:02;;;;;;;;;;;8.30;99.90;;;;;;5099806;28;20420;-77
2022/04/24 05:51:28;;;;;;;;;;;8.40;99.90;;;;;;5107224;28;19920;-77
2022/04/24 05:53:54;;;;;;;;;;;8.50;99.90;;;;;;5094516;28;19930;-76
2022/04/24 05:56:20;;;;;;;;;;;8.50;99.90;;;;;;5094964;28;19922;-77
2022/04/24 05:58:45;;;;;;;;;;;8.60;99.90;;;;;;5111685;28;20347;-77
2022/04/24 06:01:11;;;;;;;;;;;8.70;99.90;;;;;;5095317;28;20011;-78
2022/04/24 06:03:38;;;;;;;;;;;8.70;99.90;;;;;;5095121;28;20007;-78
2022/04/24 06:06:03;;;;;;;;;;;8.80;99.90;;;;;;5094724;28;19924;-76
2022/04/24 06:08:29;;;;;;;;;;;8.80;99.90;;;;;;5095007;28;19920;-77
2022/04/24 06:10:54;;;;;;;;;;;8.90;99.90;;;;;;5095178;28;19923;-76
2022/04/24 06:13:21;;;;;;;;;;;8.90;99.90;;;;;;5094962;28;20224;-77
2022/04/24 06:15:47;;;;;;;;;;;8.90;99.90;;;;;;5094631;28;20337;-77
2022/04/24 06:18:12;;;;;;;;;;;9.00;99.90;;;;;;5094142;28;19945;-77
2022/04/24 06:20:39;;;;;;;;;;;8.90;99.90;;;;;;5095831;28;20295;-76
2022/04/24 06:23:04;;;;;;;;;;;9.20;99.90;;;;;;5085065;28;20367;-77
2022/04/24 06:25:31;;;;;;;;;;;9.20;99.90;;;;;;5080139;28;19931;-77
2022/04/24 06:27:57;;;;;;;;;;;9.30;99.90;;;;;;5091306;28;19943;-74
2022/04/24 06:30:24;;;;;;;;;;;9.30;99.90;;;;;;5083040;28;20375;-78
2022/04/24 06:32:50;;;;;;;;;;;9.40;99.90;;;;;;5094373;28;20020;-76
2022/04/24 06:35:16;;;;;;;;;;;9.60;99.90;;;;;;5094008;28;20900;-74
2022/04/24 06:37:46;;;;;;;;;;;9.60;99.90;;;;;;5094603;28;20464;-79
2022/04/24 06:40:13;;;;;;;;;;;9.70;99.90;;;;;;5095890;28;20066;-76
2022/04/24 06:42:50;;;;;;;;;;;9.80;99.90;;;;;;5095275;28;19999;-76
2022/04/24 06:45:17;;;;;;;;;;;9.90;99.90;;;;;;5093706;28;20298;-76
2022/04/24 06:47:43;;;;;;;;;;;10.00;99.90;;;;;;5111511;28;19930;-76
2022/04/24 06:50:09;;;;;;;;;;;10.00;99.90;;;;;;5095149;28;19924;-77
2022/04/24 06:52:34;;;;;;;;;;;10.10;99.90;;;;;;5095595;28;20390;-77
2022/04/24 06:55:00;;;;;;;;;;;10.10;99.90;;;;;;5094463;28;19920;-75
2022/04/24 06:57:26;;;;;;;;;;;10.20;99.90;;;;;;5093062;28;19973;-74
2022/04/24 06:59:51;;;;;;;;;;;10.30;99.90;;;;;;5092538;28;19928;-77
2022/04/24 07:02:17;;;;;;;;;;;10.30;99.90;;;;;;5083898;28;19924;-75
2022/04/24 07:04:42;;;;;;;;;;;10.30;99.90;;;;;;5080309;28;21272;-72
2022/04/24 07:07:08;;;;;;;;;;;10.40;99.90;;;;;;5090789;28;19920;-77
2022/04/24 07:09:33;;;;;;;;;;;10.50;99.90;;;;;;5089125;28;19927;-78
2022/04/24 07:11:59;;;;;;;;;;;10.50;99.90;;;;;;5093034;28;19920;-72
2022/04/24 07:14:24;;;;;;;;;;;10.60;99.90;;;;;;5093237;28;19927;-75
2022/04/24 07:16:50;;;;;;;;;;;10.70;99.90;;;;;;5093312;28;19924;-78
2022/04/24 07:19:15;;;;;;;;;;;10.80;99.90;;;;;;5094069;28;20750;-71
2022/04/24 07:21:41;;;;;;;;;;;11.00;99.90;;;;;;5093655;28;19929;-71
2022/04/24 07:24:07;;;;;;;;;;;11.50;99.90;;;;;;5094193;28;19920;-88
2022/04/24 07:26:35;;;;;;;;;;;12.30;99.90;;;;;;5094588;28;20478;-88
2022/04/24 07:29:01;;;;;;;;;;;12.60;99.90;;;;;;5090663;28;19963;-77
2022/04/24 07:31:26;;;;;;;;;;;12.50;99.90;;;;;;5089531;28;20024;-75
2022/04/24 07:33:54;;;;;;;;;;;12.60;99.90;;;;;;5092786;28;19915;-82
2022/04/24 07:36:20;;;;;;;;;;;12.80;99.90;;;;;;5090886;28;19920;-87
2022/04/24 07:38:45;;;;;;;;;;;13.50;99.90;;;;;;5093878;28;19927;-83
2022/04/24 07:41:11;;;;;;;;;;;14.40;99.90;;;;;;5104005;28;19920;-80
2022/04/24 07:43:36;;;;;;;;;;;15.50;99.90;;;;;;5089442;28;19924;-83
2022/04/24 07:46:02;;;;;;;;;;;16.40;99.90;;;;;;5079366;28;20326;-75
2022/04/24 07:48:27;;;;;;;;;;;17.20;99.50;;;;;;5084668;28;19946;-71
2022/04/24 07:50:53;;;;;;;;;;;17.70;96.70;;;;;;5092485;28;19952;-74
2022/04/24 07:53:19;;;;;;;;;;;18.20;95.50;;;;;;5091818;28;19967;-72
2022/04/24 07:55:46;;;;;;;;;;;18.50;93.90;;;;;;5094709;28;20283;-77
2022/04/24 07:58:15;;;;;;;;;;;18.70;92.90;;;;;;5092514;28;19970;-77
2022/04/24 08:00:41;;;;;;;;;;;19.00;92.40;;;;;;5093561;28;19920;-75
2022/04/24 08:03:07;;;;;;;;;;;19.10;90.90;;;;;;5093662;28;19920;-76
2022/04/24 08:05:34;;;;;;;;;;;19.00;87.00;;;;;;5093732;28;19920;-77
2022/04/24 08:08:04;;;;;;;;;;;19.10;87.60;;;;;;5091010;28;19959;-78
2022/04/24 08:10:31;;;;;;;;;;;19.40;88.10;;;;;;5092474;28;20364;-74
2022/04/24 08:12:56;;;;;;;;;;;19.80;86.10;;;;;;5082715;28;19946;-77
2022/04/24 08:15:22;;;;;;;;;;;20.00;84.30;;;;;;5092438;28;19920;-78
2022/04/24 08:17:47;;;;;;;;;;;20.20;84.00;;;;;;5093680;28;19924;-80
2022/04/24 08:20:14;;;;;;;;;;;20.50;86.00;;;;;;5085925;28;19920;-78
2022/04/24 08:22:41;;;;;;;;;;;20.80;85.60;;;;;;5087294;28;20357;-75
2022/04/24 08:25:07;;;;;;;;;;;20.90;83.70;;;;;;5091443;28;19919;-79
2022/04/24 08:27:33;;;;;;;;;;;21.20;82.90;;;;;;5086645;28;19920;-80
2022/04/24 08:29:58;;;;;;;;;;;21.70;82.00;;;;;;5088330;28;20077;-80
2022/04/24 08:32:27;;;;;;;;;;;21.10;80.90;;;;;;5090271;28;19920;-81
2022/04/24 08:34:53;;;;;;;;;;;21.30;80.20;;;;;;5091080;28;19928;-87
2022/04/24 08:37:18;;;;;;;;;;;21.10;79.10;;;;;;5092934;28;19927;-73
2022/04/24 08:39:46;;;;;;;;;;;21.30;77.60;;;;;;5092587;28;19924;-76
2022/04/24 08:42:13;;;;;;;;;;;21.50;76.60;;;;;;5090436;28;19920;-74
2022/04/24 08:44:43;;;;;;;;;;;21.60;75.80;;;;;;5093510;28;20371;-81
2022/04/24 08:47:08;;;;;;;;;;;21.70;77.60;;;;;;5093071;28;20280;-83
2022/04/24 08:49:34;;;;;;;;;;;22.00;78.80;;;;;;5093316;28;19916;-83
2022/04/24 08:52:00;;;;;;;;;;;22.10;78.70;;;;;;5093667;28;19920;-75
2022/04/24 08:54:27;;;;;;;;;;;22.20;78.40;;;;;;5093087;28;19920;-84
2022/04/24 08:56:56;;;;;;;;;;;22.50;78.00;;;;;;5093445;28;19916;-88
2022/04/24 08:59:22;;;;;;;;;;;22.70;77.40;;;;;;5093439;28;19975;-80
2022/04/24 09:01:48;;;;;;;;;;;22.60;76.10;;;;;;5092684;28;19989;-80
2022/04/24 09:04:13;;;;;;;;;;;22.50;77.80;;;;;;5090730;28;19920;-80
2022/04/24 09:06:40;;;;;;;;;;;22.70;77.60;;;;;;5105426;28;19939;-86
2022/04/24 09:09:06;;;;;;;;;;;22.70;77.60;;;;;;5095075;28;19923;-81
2022/04/24 09:11:32;;;;;;;;;;;22.80;76.90;;;;;;5092500;28;19920;-82
2022/04/24 09:14:17;;;;;;;;;;;22.80;77.40;;;;;;5092976;28;19920;-84
2022/04/24 09:16:47;;;;;;;;;;;22.90;78.20;;;;;;5092628;28;20002;-81
2022/04/24 09:19:16;;;;;;;;;;;22.90;78.10;;;;;;5092129;28;19920;-78
2022/04/24 09:21:42;;;;;;;;;;;23.10;77.60;;;;;;5096555;28;19917;-82
2022/04/24 09:24:07;;;;;;;;;;;23.10;77.50;;;;;;5086866;28;19919;-76
2022/04/24 09:26:33;;;;;;;;;;;23.30;77.00;;;;;;5093683;28;20344;-85
2022/04/24 09:28:59;;;;;;;;;;;23.30;74.70;;;;;;5083807;28;19920;-79
2022/04/24 09:31:31;;;;;;;;;;;23.10;73.50;;;;;;5088340;28;20006;-78
2022/04/24 09:34:01;;;;;;;;;;;23.00;73.70;;;;;;5087177;28;19977;-79
2022/04/24 09:36:27;;;;;;;;;;;23.10;74.10;;;;;;5092765;28;19924;-83
2022/04/24 09:38:52;;;;;;;;;;;22.90;74.10;;;;;;5092809;28;20408;-78
2022/04/24 09:41:19;;;;;;;;;;;22.90;73.80;;;;;;5105268;28;19920;-80
2022/04/24 09:43:45;;;;;;;;;;;23.00;73.80;;;;;;5072635;28;19920;-78
2022/04/24 09:46:10;;;;;;;;;;;22.70;71.90;;;;;;5103308;28;19930;-75
2022/04/24 09:48:36;;;;;;;;;;;22.60;71.60;;;;;;5091740;28;19927;-74
2022/04/24 09:51:04;;;;;;;;;;;22.40;71.80;;;;;;5091980;28;19983;-80
2022/04/24 09:53:31;;;;;;;;;;;22.10;72.50;;;;;;5105089;28;19920;-82
2022/04/24 09:55:58;;;;;;;;;;;22.30;72.20;;;;;;5073893;28;19924;-85
2022/04/24 09:58:25;;;;;;;;;;;22.10;72.20;;;;;;5093467;28;19920;-84
2022/04/24 10:00:51;;;;;;;;;;;22.20;72.10;;;;;;5088180;28;19927;-89
2022/04/24 10:03:18;;;;;;;;;;;22.10;73.00;;;;;;5092456;28;20432;-78
2022/04/24 10:05:47;;;;;;;;;;;22.20;72.40;;;;;;5080798;28;19920;-81
2022/04/24 10:08:13;;;;;;;;;;;22.10;71.60;;;;;;5087906;28;19959;-81
2022/04/24 10:10:39;;;;;;;;;;;21.50;70.40;;;;;;5092412;28;19920;-79
2022/04/24 10:13:06;;;;;;;;;;;21.90;71.00;;;;;;5091136;28;19924;-82
2022/04/24 10:15:33;;;;;;;;;;;21.80;70.80;;;;;;5093669;28;19983;-84
2022/04/24 10:18:18;;;;;;;;;;;21.60;70.10;;;;;;5092390;28;19920;-77
2022/04/24 10:21:02;;;;;;;;;;;21.50;70.70;;;;;;5090970;28;19920;-75
2022/04/24 10:23:33;;;;;;;;;;;21.50;72.40;;;;;;5104597;28;20019;-88
2022/04/24 10:25:58;;;;;;;;;;;21.60;74.90;;;;;;5084593;28;19920;-80
2022/04/24 10:28:27;;;;;;;;;;;21.70;77.10;;;;;;5092046;28;19924;-79
2022/04/24 10:31:00;;;;;;;;;;;21.80;76.60;;;;;;5091829;28;19998;-81
2022/04/24 10:33:28;;;;;;;;;;;22.00;76.30;;;;;;5093774;28;20014;-79
2022/04/24 10:36:04;;;;;;;;;;;22.00;75.30;;;;;;5095558;28;20010;-78
2022/04/24 10:38:30;;;;;;;;;;;21.90;75.10;;;;;;5095130;28;19966;-77
2022/04/24 10:40:59;;;;;;;;;;;21.90;73.70;;;;;;5094418;28;19920;-83
2022/04/24 10:43:25;;;;;;;;;;;21.80;75.30;;;;;;5107779;28;19921;-78
2022/04/24 10:45:51;;;;;;;;;;;21.60;74.20;;;;;;5076228;28;20001;-78
2022/04/24 10:48:17;;;;;;;;;;;21.60;74.60;;;;;;5091527;28;19924;-84
2022/04/24 10:50:49;;;;;;;;;;;21.60;75.10;;;;;;5095313;28;20313;-78
2022/04/24 10:53:15;;;;;;;;;;;21.80;75.40;;;;;;5096066;28;19924;-77
2022/04/24 10:55:42;;;;;;;;;;;21.50;72.40;;;;;;5094202;28;19949;-79
2022/04/24 10:58:09;;;;;;;;;;;21.90;75.00;;;;;;5094004;28;20481;-74
2022/04/24 11:00:35;;;;;;;;;;;21.40;76.10;;;;;;5096129;28;19919;-74
2022/04/24 11:03:19;;;;;;;;;;;21.60;74.30;;;;;;5094316;28;19955;-79
2022/04/24 11:05:46;;;;;;;;;;;21.40;73.50;;;;;;5091395;28;20359;-76
2022/04/24 11:08:18;;;;;;;;;;;21.30;73.50;;;;;;5089229;28;20276;-85
2022/04/24 11:10:46;;;;;;;;;;;21.30;76.10;;;;;;5076903;28;19927;-90
2022/04/24 11:13:12;;;;;;;;;;;21.40;75.60;;;;;;5093505;28;19935;-82
2022/04/24 11:15:45;;;;;;;;;;;21.30;75.10;;;;;;5095287;28;19927;-73
2022/04/24 11:18:24;;;;;;;;;;;21.50;75.60;;;;;;5094225;28;20007;-79
2022/04/24 11:21:03;;;;;;;;;;;21.40;76.80;;;;;;5074498;28;19920;-76
2022/04/24 11:23:30;;;;;;;;;;;21.50;75.50;;;;;;5089319;28;19924;-78
2022/04/24 11:25:58;;;;;;;;;;;21.30;75.30;;;;;;5094006;28;19924;-82
2022/04/24 11:28:34;;;;;;;;;;;21.30;76.70;;;;;;5093114;28;19920;-77
2022/04/24 11:31:08;;;;;;;;;;;21.20;76.30;;;;;;5093197;28;20275;-79
2022/04/24 11:33:34;;;;;;;;;;;21.20;75.90;;;;;;5094397;28;19979;-86
2022/04/24 11:36:04;;;;;;;;;;;21.00;76.10;;;;;;5095232;28;19969;-85
2022/04/24 11:38:29;;;;;;;;;;;20.90;74.50;;;;;;5092856;28;19920;-85
2022/04/24 11:40:56;;;;;;;;;;;20.90;76.20;;;;;;5108613;28;19916;-81
2022/04/24 11:43:21;;;;;;;;;;;20.50;77.90;;;;;;5075598;28;19925;-86
2022/04/24 11:51:18;;;;;;;;;;;20.40;78.60;;;;;;5094712;28;19920;-74
2022/04/24 11:53:44;;;;;;;;;;;20.50;80.50;;;;;;5094223;28;20295;-79
2022/04/24 11:56:10;;;;;;;;;;;20.60;80.40;;;;;;5095846;28;20009;-78
2022/04/24 11:58:38;;;;;;;;;;;20.50;78.50;;;;;;5094609;28;19928;-76
2022/04/24 12:01:05;;;;;;;;;;;20.50;79.70;;;;;;5093769;28;19920;-76
2022/04/24 12:03:32;;;;;;;;;;;20.30;80.20;;;;;;5088244;28;19920;-75
2022/04/24 12:06:02;;;;;;;;;;;20.40;80.70;;;;;;5093922;28;19920;-74
2022/04/24 12:08:48;;;;;;;;;;;20.40;81.20;;;;;;5090051;28;19965;-78
2022/04/24 12:11:24;;;;;;;;;;;20.30;79.10;;;;;;5082462;28;19920;-77
2022/04/24 12:14:03;;;;;;;;;;;20.30;80.60;;;;;;5093994;28;19924;-76
2022/04/24 12:16:29;;;;;;;;;;;20.10;80.00;;;;;;5094776;28;19943;-79
2022/04/24 12:18:58;;;;;;;;;;;19.90;80.30;;;;;;5093237;28;20371;-77
2022/04/24 12:21:24;;;;;;;;;;;19.70;81.80;;;;;;5094371;28;20386;-78
2022/04/24 12:23:53;;;;;;;;;;;19.90;81.30;;;;;;5093643;28;19928;-81
2022/04/24 12:26:19;;;;;;;;;;;19.70;81.10;;;;;;5095749;28;20007;-80
2022/04/24 12:28:45;;;;;;;;;;;19.70;82.30;;;;;;5078165;28;19993;-81
2022/04/24 12:31:27;;;;;;;;;;;19.90;82.00;;;;;;5093498;28;20402;-80
2022/04/24 12:33:57;;;;;;;;;;;20.00;83.10;;;;;;5095205;28;19927;-80
2022/04/24 12:36:23;;;;;;;;;;;19.90;81.60;;;;;;5087645;28;20269;-81
2022/04/24 12:38:55;;;;;;;;;;;19.90;81.40;;;;;;5093287;28;19924;-80
2022/04/24 12:41:24;;;;;;;;;;;19.60;81.90;;;;;;5094054;28;20446;-84
2022/04/24 12:43:50;;;;;;;;;;;19.50;83.80;;;;;;5094785;28;20022;-83
2022/04/24 12:46:16;;;;;;;;;;;19.20;82.90;;;;;;5092398;28;20505;-85
2022/04/24 12:48:52;;;;;;;;;;;19.00;85.10;;;;;;5095248;28;19923;-88
2022/04/24 12:51:19;;;;;;;;;;;18.80;84.50;;;;;;5093870;28;19984;-87
2022/04/24 12:53:44;;;;;;;;;;;18.70;84.50;;;;;;5106588;28;19920;-96
2022/04/24 12:56:10;;;;;;;;;;;18.40;83.70;;;;;;5096768;28;19923;-90
2022/04/24 12:58:36;;;;;;;;;;;18.40;83.70;;;;;;5091354;28;19920;-82
2022/04/24 13:01:01;;;;;;;;;;;18.40;85.70;;;;;;5082813;28;20037;-84
2022/04/24 13:03:27;;;;;;;;;;;18.40;86.20;;;;;;5099958;28;19920;-82
2022/04/24 13:05:52;;;;;;;;;;;18.30;84.50;;;;;;5092761;28;19974;-86
2022/04/24 13:08:18;;;;;;;;;;;18.20;83.50;;;;;;5091190;28;20000;-78
2022/04/24 13:10:44;;;;;;;;;;;18.10;83.70;;;;;;5092832;28;19920;-79
2022/04/24 13:13:09;;;;;;;;;;;17.90;84.90;;;;;;5097013;28;20279;-85
2022/04/24 13:15:35;;;;;;;;;;;18.00;85.10;;;;;;5086675;28;19935;-78
2022/04/24 13:18:07;;;;;;;;;;;17.90;86.30;;;;;;5090538;28;19923;-73
2022/04/24 13:20:36;;;;;;;;;;;17.80;85.50;;;;;;5081095;28;19955;-80
2022/04/24 13:23:05;;;;;;;;;;;17.80;86.00;;;;;;5091255;28;19924;-81
2022/04/24 13:25:31;;;;;;;;;;;17.70;84.80;;;;;;5099450;28;19928;-80
2022/04/24 13:27:57;;;;;;;;;;;17.70;86.30;;;;;;5086580;28;20011;-78
2022/04/24 13:30:22;;;;;;;;;;;17.40;85.70;;;;;;5087735;28;20285;-80
2022/04/24 13:32:48;;;;;;;;;;;17.50;86.50;;;;;;5083979;28;19977;-84
2022/04/24 13:35:13;;;;;;;;;;;17.40;87.20;;;;;;5083664;28;19927;-79
2022/04/24 13:40:24;;;;;;;;;;;17.40;86.70;;;;;;5076130;28;19936;-82
2022/04/24 13:42:49;;;;;;;;;;;17.40;86.60;;;;;;5092370;28;19919;-82
2022/04/24 13:45:15;;;;;;;;;;;17.30;86.10;;;;;;5083268;28;19928;-80
2022/04/24 13:47:40;;;;;;;;;;;17.30;86.30;;;;;;5084088;28;20080;-81
2022/04/24 13:50:06;;;;;;;;;;;17.30;85.60;;;;;;5090566;28;19920;-78
2022/04/24 13:52:32;;;;;;;;;;;17.20;86.50;;;;;;5091531;28;20425;-89
2022/04/24 13:54:57;;;;;;;;;;;17.90;87.20;;;;;;5091149;28;19955;-92
2022/04/24 13:57:23;;;;;;;;;;;17.20;87.00;;;;;;5091899;28;20411;-78
2022/04/24 13:59:49;;;;;;;;;;;17.10;87.10;;;;;;5088263;28;19928;-76
2022/04/24 14:02:16;;;;;;;;;;;17.00;86.80;;;;;;5090610;28;20025;-78
2022/04/24 14:04:41;;;;;;;;;;;16.90;87.50;;;;;;5089474;28;19924;-78
2022/04/24 14:07:07;;;;;;;;;;;16.90;88.40;;;;;;5088233;28;20043;-80
2022/04/24 14:09:34;;;;;;;;;;;17.00;90.20;;;;;;5095253;28;19920;-83
2022/04/24 14:12:00;;;;;;;;;;;16.30;91.20;;;;;;5094076;28;19927;-77
2022/04/24 14:14:25;;;;;;;;;;;16.30;92.70;;;;;;5091878;28;19920;-81
2022/04/24 14:16:51;;;;;;;;;;;16.40;92.50;;;;;;5091783;28;19924;-84
2022/04/24 14:19:16;;;;;;;;;;;16.50;92.70;;;;;;5095619;28;19924;-79
2022/04/24 14:21:42;;;;;;;;;;;16.50;93.20;;;;;;5090888;28;20385;-85
2022/04/24 14:24:11;;;;;;;;;;;16.60;93.10;;;;;;5090128;28;19920;-86
2022/04/24 14:26:36;;;;;;;;;;;16.50;93.10;;;;;;5105486;28;19973;-94
2022/04/24 14:29:02;;;;;;;;;;;16.50;93.20;;;;;;5094810;28;19928;-83